createdAt,value
2023-02-06T00:01:26.330Z,12.43
2023-02-06T00:03:53.144Z,11.52
2023-02-06T00:06:20.443Z,8.20
2023-02-06T00:08:47.147Z,10.18
2023-02-06T00:11:16.810Z,12.95
2023-02-06T00:13:44.998Z,12.45
2023-02-06T00:16:22.357Z,10.05
2023-02-06T00:18:50.114Z,7.60
2023-02-06T00:21:20.359Z,11.02
2023-02-06T00:23:50.686Z,9.25
2023-02-06T00:26:18.398Z,10.80
2023-02-06T00:28:46.200Z,10.57
2023-02-06T00:31:13.793Z,11.23
2023-02-06T00:33:40.780Z,10.65
2023-02-06T00:36:07.942Z,9.05
2023-02-06T00:38:35.988Z,10.43
2023-02-06T00:41:02.761Z,10.95
2023-02-06T00:43:29.748Z,11.13
2023-02-06T00:45:57.740Z,11.65
2023-02-06T00:48:25.695Z,10.73
2023-02-06T00:50:53.718Z,14.32
2023-02-06T00:53:20.764Z,11.40
2023-02-06T00:55:47.330Z,10.73
2023-02-06T00:58:14.182Z,10.02
2023-02-06T01:00:44.346Z,10.10
2023-02-06T01:03:11.219Z,11.68
2023-02-06T01:05:38.370Z,10.10
2023-02-06T01:08:05.156Z,10.02
2023-02-06T01:10:32.503Z,9.55
2023-02-06T01:13:00.025Z,13.05
2023-02-06T01:15:26.998Z,10.20
2023-02-06T01:17:53.748Z,8.85
2023-02-06T01:20:21.789Z,10.57
2023-02-06T01:22:48.556Z,11.05
2023-02-06T01:25:15.345Z,8.90
2023-02-06T01:27:42.116Z,9.05
2023-02-06T01:30:09.957Z,12.18
2023-02-06T01:32:41.174Z,9.00
2023-02-06T01:35:09.854Z,10.10
2023-02-06T01:37:37.656Z,9.73
2023-02-06T01:40:06.329Z,8.25
2023-02-06T01:42:38.047Z,10.55
2023-02-06T01:45:26.759Z,9.23
2023-02-06T01:48:07.169Z,8.13
2023-02-06T01:50:38.223Z,8.75
2023-02-06T01:53:06.584Z,8.37
2023-02-06T01:55:36.314Z,9.27
2023-02-06T01:58:04.523Z,10.52
2023-02-06T02:00:31.358Z,9.20
2023-02-06T02:02:58.001Z,8.88
2023-02-06T02:05:24.891Z,9.65
2023-02-06T02:08:01.182Z,11.05
2023-02-06T02:10:30.719Z,9.90
2023-02-06T02:12:57.851Z,10.77
2023-02-06T02:15:40.771Z,8.85
2023-02-06T02:18:13.666Z,11.63
2023-02-06T02:20:54.428Z,7.03
2023-02-06T02:23:33.421Z,7.55
2023-02-06T02:26:12.358Z,9.38
2023-02-06T02:29:01.075Z,9.95
2023-02-06T02:31:40.117Z,10.63
2023-02-06T02:34:19.688Z,8.23
2023-02-06T02:36:54.182Z,10.13
2023-02-06T02:39:31.323Z,9.65
2023-02-06T02:42:19.215Z,7.65
2023-02-06T02:45:10.653Z,10.27
2023-02-06T02:47:47.568Z,7.47
2023-02-06T02:50:16.072Z,11.18
2023-02-06T02:52:43.244Z,10.20
2023-02-06T02:55:18.094Z,12.70
2023-02-06T02:57:49.066Z,10.02
2023-02-06T03:00:17.862Z,8.70
2023-02-06T03:02:48.390Z,11.88
2023-02-06T03:05:20.167Z,9.13
2023-02-06T03:08:00.720Z,7.82
2023-02-06T03:10:31.878Z,9.45
2023-02-06T03:13:10.058Z,15.10
2023-02-06T03:16:14.545Z,9.52
2023-02-06T03:18:49.113Z,8.27
2023-02-06T03:21:19.986Z,10.50
2023-02-06T03:23:50.196Z,7.72
2023-02-06T03:26:22.689Z,10.13
2023-02-06T03:28:52.983Z,8.98
2023-02-06T03:31:45.284Z,7.28
2023-02-06T03:34:22.758Z,9.70
2023-02-06T03:36:55.691Z,7.97
2023-02-06T03:39:23.140Z,12.35
2023-02-06T03:41:51.422Z,9.07
2023-02-06T03:44:26.281Z,7.95
2023-02-06T03:46:56.268Z,7.72
2023-02-06T03:49:26.787Z,10.38
2023-02-06T03:52:05.528Z,12.23
2023-02-06T03:54:35.911Z,9.10
2023-02-06T03:57:08.165Z,8.40
2023-02-06T03:59:35.040Z,11.45
2023-02-06T04:02:04.112Z,9.52
2023-02-06T04:04:42.451Z,9.95
2023-02-06T04:07:20.698Z,10.15
2023-02-06T04:09:48.274Z,10.77
2023-02-06T04:12:15.561Z,10.07
2023-02-06T04:14:43.467Z,11.40
2023-02-06T04:17:11.213Z,9.02
2023-02-06T04:19:38.454Z,10.43
2023-02-06T04:22:07.071Z,10.50
2023-02-06T04:24:33.911Z,9.85
2023-02-06T04:27:00.554Z,8.52
2023-02-06T04:29:27.270Z,9.88
2023-02-06T04:31:54.349Z,9.98
2023-02-06T04:34:21.114Z,9.20
2023-02-06T04:36:47.825Z,11.60
2023-02-06T04:39:14.596Z,8.93
2023-02-06T04:41:41.277Z,9.93
2023-02-06T04:44:07.937Z,9.23
2023-02-06T04:46:35.101Z,9.18
2023-02-06T04:49:01.658Z,11.20
2023-02-06T04:51:28.213Z,11.70
2023-02-06T04:53:55.235Z,7.28
2023-02-06T04:56:22.086Z,9.10
2023-02-06T04:58:48.786Z,10.18
2023-02-06T05:01:16.971Z,9.07
2023-02-06T05:03:44.126Z,9.10
2023-02-06T05:06:11.061Z,8.55
2023-02-06T05:08:37.948Z,10.27
2023-02-06T05:11:05.193Z,8.23
2023-02-06T05:13:33.875Z,7.90
2023-02-06T05:16:12.818Z,14.02
2023-02-06T05:18:40.106Z,10.48
2023-02-06T05:21:07.606Z,10.63
2023-02-06T05:23:34.177Z,10.00
2023-02-06T05:26:01.264Z,11.60
2023-02-06T05:28:29.954Z,13.20
2023-02-06T05:30:57.063Z,12.25
2023-02-06T05:33:23.812Z,12.60
2023-02-06T05:35:50.348Z,10.23
2023-02-06T05:38:17.512Z,10.45
2023-02-06T05:40:44.451Z,8.90
2023-02-06T05:43:11.824Z,11.02
2023-02-06T05:45:38.609Z,12.20
2023-02-06T05:48:05.519Z,8.48
2023-02-06T05:50:32.171Z,8.30
2023-02-06T05:52:59.004Z,9.00
2023-02-06T05:55:25.788Z,9.57
2023-02-06T05:57:52.523Z,11.52
2023-02-06T06:00:19.605Z,9.73
2023-02-06T06:02:46.338Z,12.10
2023-02-06T06:05:13.022Z,9.90
2023-02-06T06:07:39.660Z,9.18
2023-02-06T06:10:06.742Z,6.03
2023-02-06T06:12:33.305Z,8.35
2023-02-06T06:14:59.998Z,7.22
2023-02-06T06:17:29.745Z,8.73
2023-02-06T06:19:56.419Z,8.15
2023-02-06T06:22:23.054Z,10.05
2023-02-06T06:24:49.587Z,11.48
2023-02-06T06:27:16.372Z,11.55
2023-02-06T06:29:43.353Z,11.75
2023-02-06T06:32:09.923Z,18.85
2023-02-06T06:34:36.683Z,11.63
2023-02-06T06:37:03.391Z,11.07
2023-02-06T06:39:30.159Z,9.38
2023-02-06T06:41:56.781Z,11.05
2023-02-06T06:44:23.728Z,9.10
2023-02-06T06:46:50.534Z,8.48
2023-02-06T06:49:17.789Z,9.57
2023-02-06T06:51:44.365Z,11.35
2023-02-06T06:54:11.039Z,9.68
2023-02-06T06:56:37.694Z,10.68
2023-02-06T06:59:04.336Z,11.45
2023-02-06T07:01:31.147Z,12.07
2023-02-06T07:04:00.576Z,12.80
2023-02-06T07:06:27.810Z,8.77
2023-02-06T07:08:54.351Z,9.07
2023-02-06T07:11:20.954Z,10.52
2023-02-06T07:13:47.762Z,11.77
2023-02-06T07:16:14.596Z,8.65
2023-02-06T07:18:42.988Z,12.00
2023-02-06T07:21:10.670Z,10.35
2023-02-06T07:23:38.108Z,11.65
2023-02-06T07:26:05.448Z,13.45
2023-02-06T07:28:32.896Z,11.80
2023-02-06T07:31:03.815Z,13.40
2023-02-06T07:33:30.356Z,10.97
2023-02-06T07:35:57.598Z,12.48
2023-02-06T07:38:24.580Z,15.73
2023-02-06T07:40:51.308Z,19.27
2023-02-06T07:43:18.070Z,14.52
2023-02-06T07:45:44.966Z,10.75
2023-02-06T07:48:11.812Z,12.48
2023-02-06T07:50:38.582Z,15.63
2023-02-06T07:53:05.254Z,13.77
2023-02-06T07:55:31.846Z,10.35
2023-02-06T07:57:58.584Z,13.82
2023-02-06T08:00:25.091Z,13.65
2023-02-06T08:02:52.007Z,16.35
2023-02-06T08:05:19.176Z,14.05
2023-02-06T08:07:45.800Z,13.20
2023-02-06T08:10:12.424Z,13.48
2023-02-06T08:12:39.060Z,11.70
2023-02-06T08:15:05.903Z,10.88
2023-02-06T08:17:32.578Z,13.60
2023-02-06T08:19:59.436Z,13.18
2023-02-06T08:22:29.834Z,10.63
2023-02-06T08:24:56.640Z,13.73
2023-02-06T08:27:23.311Z,15.43
2023-02-06T08:29:51.644Z,11.85
2023-02-06T08:32:18.192Z,12.45
2023-02-06T08:34:44.902Z,8.32
2023-02-06T08:37:11.545Z,10.48
2023-02-06T08:39:38.390Z,9.63
2023-02-06T08:42:05.128Z,9.95
2023-02-06T08:44:32.051Z,9.50
2023-02-06T08:47:09.247Z,8.65
2023-02-06T08:49:36.998Z,6.65
2023-02-06T08:52:03.618Z,7.38
2023-02-06T08:54:30.431Z,7.13
2023-02-06T08:56:58.443Z,11.30
2023-02-06T08:59:25.150Z,7.88
2023-02-06T09:01:52.316Z,10.25
2023-02-06T09:04:19.536Z,8.07
2023-02-06T09:06:48.936Z,8.70
2023-02-06T09:09:15.748Z,7.35
2023-02-06T09:11:43.036Z,8.25
2023-02-06T09:14:14.428Z,8.27
2023-02-06T09:16:40.991Z,8.30
2023-02-06T09:19:08.039Z,8.10
2023-02-06T09:21:37.442Z,7.32
2023-02-06T09:24:06.932Z,6.32
2023-02-06T09:26:53.469Z,8.55
2023-02-06T09:29:24.961Z,10.60
2023-02-06T09:31:51.666Z,7.47
2023-02-06T09:34:18.344Z,7.15
2023-02-06T09:36:45.032Z,7.03
2023-02-06T09:39:11.598Z,5.50
2023-02-06T09:42:03.168Z,5.63
2023-02-06T09:44:39.105Z,6.47
2023-02-06T09:47:28.150Z,6.75
2023-02-06T09:49:59.529Z,6.28
2023-02-06T09:52:52.596Z,4.32
2023-02-06T09:55:30.623Z,4.28
2023-02-06T09:58:19.250Z,5.50
2023-02-06T10:00:55.592Z,4.50
2023-02-06T10:03:47.068Z,6.05
2023-02-06T10:06:20.807Z,6.43
2023-02-06T10:09:10.103Z,5.60
2023-02-06T10:11:48.376Z,5.57
2023-02-06T10:14:33.682Z,6.15
2023-02-06T10:17:04.900Z,5.93
2023-02-06T10:19:48.314Z,8.05
2023-02-06T10:22:31.151Z,6.55
2023-02-06T10:25:03.770Z,7.20
2023-02-06T10:27:33.594Z,5.65
2023-02-06T10:30:01.449Z,4.90
2023-02-06T10:32:34.111Z,7.25
2023-02-06T10:35:00.666Z,5.63
2023-02-06T10:37:39.698Z,4.70
2023-02-06T10:40:43.382Z,6.35
2023-02-06T10:43:24.721Z,5.80
2023-02-06T10:46:03.300Z,6.93
2023-02-06T10:48:50.750Z,6.03
2023-02-06T10:51:38.662Z,5.95
2023-02-06T10:54:18.350Z,3.92
2023-02-06T10:56:47.626Z,7.65
2023-02-06T10:59:37.648Z,6.43
2023-02-06T11:02:12.079Z,5.40
2023-02-06T11:04:42.569Z,5.88
2023-02-06T11:07:17.469Z,8.93
2023-02-06T11:09:44.903Z,5.00
2023-02-06T11:12:39.500Z,4.90
2023-02-06T11:15:23.802Z,4.68
2023-02-06T11:17:52.849Z,6.10
2023-02-06T11:20:28.252Z,7.13
2023-02-06T11:22:55.119Z,5.47
2023-02-06T11:25:49.058Z,5.47
2023-02-06T11:28:39.656Z,8.38
2023-02-06T11:31:08.709Z,4.97
2023-02-06T11:33:46.144Z,4.85
2023-02-06T11:36:22.646Z,4.88
2023-02-06T11:39:10.295Z,3.33
2023-02-06T11:41:37.320Z,7.15
2023-02-06T11:44:06.537Z,5.45
2023-02-06T11:46:35.785Z,6.72
2023-02-06T11:49:26.176Z,9.68
2023-02-06T11:52:00.666Z,5.68
2023-02-06T11:54:29.289Z,4.63
2023-02-06T11:57:05.139Z,4.55
2023-02-06T11:59:34.577Z,5.32
2023-02-06T12:02:05.848Z,4.45
2023-02-06T12:04:40.701Z,4.03
2023-02-06T12:07:16.536Z,3.40
2023-02-06T12:09:43.426Z,4.10
2023-02-06T12:12:30.748Z,5.03
2023-02-06T12:15:36.190Z,3.03
2023-02-06T12:18:05.977Z,5.18
2023-02-06T12:20:36.713Z,4.57
2023-02-06T12:23:11.745Z,4.40
2023-02-06T12:25:41.656Z,4.70
2023-02-06T12:28:21.202Z,3.35
2023-02-06T12:30:55.625Z,7.75
2023-02-06T12:33:35.532Z,3.65
2023-02-06T12:36:12.047Z,3.30
2023-02-06T12:38:57.308Z,4.88
2023-02-06T12:41:45.958Z,3.85
2023-02-06T12:44:38.330Z,4.85
2023-02-06T12:47:24.451Z,7.38
2023-02-06T12:49:50.978Z,4.85
2023-02-06T12:52:25.711Z,7.53
2023-02-06T12:55:02.203Z,6.97
2023-02-06T12:57:31.549Z,4.70
2023-02-06T13:00:11.765Z,3.58
2023-02-06T13:03:01.768Z,4.38
2023-02-06T13:05:32.989Z,4.93
2023-02-06T13:08:07.920Z,3.92
2023-02-06T13:10:37.561Z,6.38
2023-02-06T13:13:04.949Z,4.25
2023-02-06T13:15:55.040Z,5.15
2023-02-06T13:18:52.622Z,3.80
2023-02-06T13:21:25.256Z,5.78
2023-02-06T13:24:14.762Z,5.68
2023-02-06T13:27:00.502Z,7.30
2023-02-06T13:29:27.183Z,4.07
2023-02-06T13:32:12.314Z,5.18
2023-02-06T13:34:45.087Z,6.32
2023-02-06T13:37:38.908Z,4.57
2023-02-06T13:40:17.758Z,4.60
2023-02-06T13:42:49.485Z,6.03
2023-02-06T13:45:40.365Z,5.82
2023-02-06T13:48:23.840Z,5.03
2023-02-06T13:50:59.658Z,5.63
2023-02-06T13:53:38.843Z,5.80
2023-02-06T13:56:15.607Z,5.95
2023-02-06T13:58:52.407Z,6.20
2023-02-06T14:01:23.322Z,7.60
2023-02-06T14:03:51.401Z,3.43
2023-02-06T14:06:27.561Z,6.97
2023-02-06T14:09:12.755Z,4.78
2023-02-06T14:12:03.965Z,3.78
2023-02-06T14:14:41.085Z,3.43
2023-02-06T14:17:13.704Z,6.63
2023-02-06T14:19:49.828Z,7.10
2023-02-06T14:22:42.613Z,5.95
2023-02-06T14:25:39.172Z,4.68
2023-02-06T14:28:22.060Z,6.25
2023-02-06T14:31:27.161Z,3.40
2023-02-06T14:34:19.801Z,4.50
2023-02-06T14:37:10.312Z,4.90
2023-02-06T14:40:33.540Z,3.53
2023-02-06T14:43:05.043Z,7.32
2023-02-06T14:45:41.714Z,6.88
2023-02-06T14:48:41.114Z,4.65
2023-02-06T14:51:18.138Z,2.70
2023-02-06T14:53:53.241Z,5.57
2023-02-06T14:56:28.967Z,5.30
2023-02-06T14:58:55.838Z,3.05
2023-02-06T15:01:27.875Z,3.67
2023-02-06T15:04:13.443Z,5.53
2023-02-06T15:06:51.033Z,6.68
2023-02-06T15:09:26.079Z,6.50
2023-02-06T15:11:54.938Z,5.03
2023-02-06T15:14:33.448Z,4.22
2023-02-06T15:17:02.566Z,5.22
2023-02-06T15:19:35.486Z,4.15
2023-02-06T15:22:12.927Z,3.20
2023-02-06T15:25:11.277Z,3.58
2023-02-06T15:27:39.551Z,3.38
2023-02-06T15:30:22.136Z,3.70
2023-02-06T15:32:51.444Z,4.20
2023-02-06T15:35:30.727Z,4.10
2023-02-06T15:38:04.573Z,3.63
2023-02-06T15:40:35.411Z,8.05
2023-02-06T15:43:03.094Z,4.53
2023-02-06T15:45:36.405Z,3.17
2023-02-06T15:48:13.525Z,4.35
2023-02-06T15:50:40.360Z,3.80
2023-02-06T15:53:18.232Z,5.22
2023-02-06T15:55:53.265Z,4.13
2023-02-06T15:58:21.007Z,5.18
2023-02-06T16:00:54.583Z,3.45
2023-02-06T16:03:24.582Z,4.10
2023-02-06T16:05:52.656Z,4.88
2023-02-06T16:08:34.774Z,5.55
2023-02-06T16:11:28.028Z,3.83
2023-02-06T16:13:55.285Z,2.70
2023-02-06T16:16:25.047Z,6.43
2023-02-06T16:18:53.404Z,5.43
2023-02-06T16:21:28.863Z,8.23
2023-02-06T16:23:59.788Z,2.55
2023-02-06T16:26:29.622Z,4.80
2023-02-06T16:29:08.720Z,3.60
2023-02-06T16:31:39.047Z,5.80
2023-02-06T16:34:35.492Z,4.45
2023-02-06T16:37:10.865Z,3.97
2023-02-06T16:39:40.593Z,5.18
2023-02-06T16:42:07.231Z,3.72
2023-02-06T16:44:44.856Z,3.20
2023-02-06T16:47:15.017Z,3.00
2023-02-06T16:49:41.912Z,4.93
2023-02-06T16:52:16.853Z,4.20
2023-02-06T16:54:44.824Z,4.07
2023-02-06T16:57:29.579Z,4.03
2023-02-06T16:59:56.863Z,4.22
2023-02-06T17:02:24.160Z,3.60
2023-02-06T17:04:51.033Z,4.03
2023-02-06T17:07:21.599Z,4.22
2023-02-06T17:09:50.074Z,3.72
2023-02-06T17:12:20.279Z,3.72
2023-02-06T17:14:48.675Z,3.08
2023-02-06T17:17:18.498Z,4.05
2023-02-06T17:19:46.018Z,4.85
2023-02-06T17:22:13.201Z,4.13
2023-02-06T17:24:40.677Z,7.57
2023-02-06T17:27:11.812Z,6.43
2023-02-06T17:29:38.547Z,9.82
2023-02-06T17:32:06.858Z,9.80
2023-02-06T17:34:33.864Z,9.57
2023-02-06T17:37:01.702Z,11.68
2023-02-06T17:39:28.713Z,7.57
2023-02-06T17:41:55.453Z,12.00
2023-02-06T17:44:22.292Z,11.25
2023-02-06T17:46:49.689Z,8.38
2023-02-06T17:49:17.796Z,9.90
2023-02-06T17:51:45.684Z,9.88
2023-02-06T17:54:12.797Z,11.70
2023-02-06T17:56:39.777Z,10.40
2023-02-06T17:59:06.639Z,10.95
2023-02-06T18:01:33.296Z,18.05
2023-02-06T18:04:01.023Z,11.60
2023-02-06T18:06:32.248Z,7.57
2023-02-06T18:08:58.815Z,6.45
2023-02-06T18:11:25.750Z,7.30
2023-02-06T18:13:53.842Z,6.70
2023-02-06T18:16:24.664Z,5.18
2023-02-06T18:18:51.633Z,5.03
2023-02-06T18:21:19.702Z,7.00
2023-02-06T18:23:48.116Z,6.35
2023-02-06T18:26:15.924Z,4.43
2023-02-06T18:28:42.660Z,5.78
2023-02-06T18:31:28.179Z,7.45
2023-02-06T18:33:55.959Z,8.13
2023-02-06T18:36:23.703Z,9.38
2023-02-06T18:38:50.653Z,5.85
2023-02-06T18:41:36.261Z,9.75
2023-02-06T18:44:07.274Z,6.75
2023-02-06T18:46:35.319Z,7.20
2023-02-06T18:49:02.173Z,7.72
2023-02-06T18:51:29.590Z,8.25
2023-02-06T18:53:57.528Z,7.03
2023-02-06T18:56:24.354Z,6.53
2023-02-06T18:58:51.176Z,6.95
2023-02-06T19:01:24.232Z,7.40
2023-02-06T19:03:52.649Z,10.52
2023-02-06T19:06:31.752Z,7.43
2023-02-06T19:08:58.957Z,13.10
2023-02-06T19:11:26.343Z,8.52
2023-02-06T19:13:53.383Z,5.57
2023-02-06T19:16:21.617Z,6.38
2023-02-06T19:18:49.350Z,7.78
2023-02-06T19:21:18.759Z,11.32
2023-02-06T19:23:48.250Z,5.40
2023-02-06T19:26:17.504Z,5.65
2023-02-06T19:28:45.053Z,13.20
2023-02-06T19:31:13.278Z,6.25
2023-02-06T19:33:41.720Z,5.85
2023-02-06T19:36:13.726Z,7.50
2023-02-06T19:41:15.680Z,6.32
2023-02-06T19:43:42.697Z,7.10
2023-02-06T19:46:11.985Z,5.75
2023-02-06T19:48:43.112Z,6.85
2023-02-06T19:51:15.056Z,8.98
2023-02-06T19:53:45.716Z,6.72
2023-02-06T19:56:27.057Z,7.68
2023-02-06T19:58:55.483Z,6.78
2023-02-06T20:01:23.193Z,10.10
2023-02-06T20:03:51.216Z,8.02
2023-02-06T20:06:18.551Z,6.18
2023-02-06T20:08:46.740Z,7.15
2023-02-06T20:11:16.605Z,7.32
2023-02-06T20:13:43.989Z,7.90
2023-02-06T20:16:17.639Z,6.68
2023-02-06T20:18:45.162Z,9.77
2023-02-06T20:21:27.929Z,7.38
2023-02-06T20:23:56.445Z,7.57
2023-02-06T20:26:25.605Z,7.13
2023-02-06T20:28:52.777Z,7.45
2023-02-06T20:31:20.144Z,7.78
2023-02-06T20:33:48.001Z,9.50
2023-02-06T20:36:20.480Z,7.57
2023-02-06T20:38:52.392Z,7.32
2023-02-06T20:41:22.177Z,7.22
2023-02-06T20:43:48.850Z,12.65
2023-02-06T20:46:17.240Z,7.47
2023-02-06T20:48:46.101Z,10.02
2023-02-06T20:51:14.202Z,7.20
2023-02-06T20:53:41.268Z,9.32
2023-02-06T20:56:12.747Z,8.85
2023-02-06T20:58:39.533Z,6.45
2023-02-06T21:01:12.959Z,8.70
2023-02-06T21:03:39.716Z,9.13
2023-02-06T21:06:06.470Z,9.32
2023-02-06T21:08:34.737Z,10.55
2023-02-06T21:11:02.267Z,8.07
2023-02-06T21:13:29.101Z,10.60
2023-02-06T21:15:57.910Z,8.15
2023-02-06T21:18:27.553Z,10.30
2023-02-06T21:20:56.034Z,8.70
2023-02-06T21:23:24.405Z,9.68
2023-02-06T21:25:55.504Z,8.48
2023-02-06T21:28:22.341Z,7.70
2023-02-06T21:30:49.971Z,7.60
2023-02-06T21:33:19.990Z,9.73
2023-02-06T21:35:52.864Z,12.25
2023-02-06T21:38:20.393Z,10.55
2023-02-06T21:40:47.228Z,6.47
2023-02-06T21:43:16.867Z,8.48
2023-02-06T21:45:46.327Z,8.45
2023-02-06T21:48:13.193Z,8.88
2023-02-06T21:50:41.107Z,12.50
2023-02-06T21:53:11.728Z,8.63
2023-02-06T21:55:43.403Z,10.90
2023-02-06T21:58:14.559Z,9.25
2023-02-06T22:00:46.112Z,8.85
2023-02-06T22:03:13.793Z,10.20
2023-02-06T22:05:40.681Z,11.63
2023-02-06T22:08:07.503Z,6.72
2023-02-06T22:10:37.725Z,12.85
2023-02-06T22:13:05.983Z,9.73
2023-02-06T22:15:33.715Z,6.70
2023-02-06T22:18:00.647Z,6.63
2023-02-06T22:20:27.780Z,10.88
2023-02-06T22:22:57.677Z,9.18
2023-02-06T22:25:24.380Z,7.07
2023-02-06T22:27:50.984Z,8.73
2023-02-06T22:30:17.903Z,12.20
2023-02-06T22:32:44.587Z,13.95
2023-02-06T22:35:11.260Z,11.57
2023-02-06T22:37:37.853Z,8.93
2023-02-06T22:40:05.066Z,16.75
2023-02-06T22:42:31.704Z,7.40
2023-02-06T22:44:58.584Z,15.85
2023-02-06T22:47:25.109Z,24.77
2023-02-06T22:49:52.715Z,11.13
2023-02-06T22:52:38.150Z,15.95
2023-02-06T22:55:05.798Z,14.15
2023-02-06T22:57:35.172Z,12.15
2023-02-06T23:00:02.372Z,15.07
2023-02-06T23:02:28.965Z,19.13
2023-02-06T23:04:55.785Z,14.52
2023-02-06T23:07:22.330Z,12.38
2023-02-06T23:09:48.951Z,10.85
2023-02-06T23:12:16.326Z,9.68
2023-02-06T23:14:43.249Z,11.60
2023-02-06T23:17:10.873Z,9.38
2023-02-06T23:19:39.245Z,10.38
2023-02-06T23:22:06.308Z,6.57
2023-02-06T23:24:33.154Z,7.50
2023-02-06T23:26:59.812Z,10.02
2023-02-06T23:29:26.437Z,8.60
2023-02-06T23:31:53.541Z,8.13
2023-02-06T23:34:23.649Z,10.13
2023-02-06T23:36:51.829Z,10.50
2023-02-06T23:39:18.754Z,8.73
2023-02-06T23:41:45.743Z,8.93
2023-02-06T23:44:12.441Z,12.10
2023-02-06T23:46:40.332Z,7.45
2023-02-06T23:49:10.989Z,9.23
2023-02-06T23:51:38.258Z,12.15
2023-02-06T23:54:06.243Z,8.63
2023-02-06T23:56:33.703Z,12.75
2023-02-06T23:59:02.279Z,9.40
